Time;durP1;ratioP1;P1;durP2;ratioP2;P2;SDS_P1;SDS_P2;PMS_P1;PMS_P2;Temp;Humidity;BMP_temperature;BMP_pressure;BME280_temperature;BME280_humidity;BME280_pressure;Samples;Min_cycle;Max_cycle;Signal;HPM_P1;HPM_P2
2022/06/27 00:02:01;;;;;;;;;;;;;;;18.00;88.29;95474.75;5155905;27;1011;-48
2022/06/27 00:04:27;;;;;;;;;;;;;;;17.96;88.76;95484.28;5155763;27;1913;-48
2022/06/27 00:06:53;;;;;;;;;;;;;;;18.04;88.53;95484.16;5156023;27;1011;-48
2022/06/27 00:09:19;;;;;;;;;;;;;;;18.20;89.17;95474.84;5155848;27;1055;-48
2022/06/27 00:11:45;;;;;;;;;;;;;;;18.22;87.86;95470.06;5155687;27;1055;-48
2022/06/27 00:14:11;;;;;;;;;;;;;;;18.18;88.03;95473.41;5155632;27;1059;-48
2022/06/27 00:16:37;;;;;;;;;;;;;;;17.98;87.96;95476.81;5155701;27;1366;-48
2022/06/27 00:19:03;;;;;;;;;;;;;;;17.81;87.59;95475.44;5155783;27;983;-48
2022/06/27 00:21:29;;;;;;;;;;;;;;;17.56;88.93;95473.19;5155426;27;1071;-48
2022/06/27 00:23:56;;;;;;;;;;;;;;;17.64;89.29;95478.47;5155638;27;1913;-48
2022/06/27 00:26:22;;;;;;;;;;;;;;;17.75;89.08;95477.06;5155350;27;1018;-48
2022/06/27 00:28:48;;;;;;;;;;;;;;;17.75;88.58;95471.66;5155277;27;1052;-48
2022/06/27 00:31:14;;;;;;;;;;;;;;;17.78;88.07;95471.25;5155420;27;1043;-48
2022/06/27 00:33:40;;;;;;;;;;;;;;;17.70;88.45;95466.00;5155373;27;1083;-48
2022/06/27 00:36:06;;;;;;;;;;;;;;;17.66;88.47;95465.56;5155083;27;1063;-48
2022/06/27 00:38:32;;;;;;;;;;;;;;;17.67;88.96;95466.41;5155444;27;1047;-48
2022/06/27 00:40:58;;;;;;;;;;;;;;;17.65;88.87;95469.31;5154976;27;1048;-48
2022/06/27 00:43:24;;;;;;;;;;;;;;;17.66;88.33;95465.56;5139601;27;1917;-48
2022/06/27 00:45:50;;;;;;;;;;;;;;;17.59;88.18;95467.41;5134582;27;1024;-48
2022/06/27 00:48:16;;;;;;;;;;;;;;;17.58;88.33;95464.88;5134618;27;957;-48
2022/06/27 00:50:42;;;;;;;;;;;;;;;17.74;87.39;95459.19;5134421;27;962;-48
2022/06/27 00:53:10;;;;;;;;;;;;;;;17.58;87.78;95465.72;5134393;27;1107;-48
2022/06/27 00:55:36;;;;;;;;;;;;;;;17.47;89.09;95460.84;5134277;27;980;-48
2022/06/27 00:58:02;;;;;;;;;;;;;;;17.58;88.78;95449.47;5134268;27;1647;-48
2022/06/27 01:00:28;;;;;;;;;;;;;;;17.69;89.11;95454.34;5134215;27;1091;-48
2022/06/27 01:02:55;;;;;;;;;;;;;;;17.72;89.47;95461.25;5134368;27;1906;-48
2022/06/27 01:05:21;;;;;;;;;;;;;;;17.50;89.19;95464.00;5134276;27;960;-48
2022/06/27 01:07:47;;;;;;;;;;;;;;;17.32;90.58;95456.38;5134267;28;976;-48
2022/06/27 01:10:13;;;;;;;;;;;;;;;17.44;90.60;95458.53;5134190;28;1087;-48
2022/06/27 01:12:40;;;;;;;;;;;;;;;17.55;89.50;95458.00;5134038;28;1063;-48
2022/06/27 01:15:07;;;;;;;;;;;;;;;17.66;89.27;95456.59;5134413;28;1011;-48
2022/06/27 01:17:33;;;;;;;;;;;;;;;17.66;89.39;95462.00;5134066;28;1098;-48
2022/06/27 01:19:59;;;;;;;;;;;;;;;17.66;89.69;95453.91;5134322;28;1023;-48
2022/06/27 01:22:25;;;;;;;;;;;;;;;17.62;90.22;95448.06;5133814;28;1253;-48
2022/06/27 01:24:51;;;;;;;;;;;;;;;17.45;89.39;95457.50;5134129;28;1902;-48
2022/06/27 01:27:17;;;;;;;;;;;;;;;17.21;90.04;95454.22;5133822;28;1055;-48
2022/06/27 01:29:43;;;;;;;;;;;;;;;17.41;90.26;95453.53;5134046;28;910;-48
2022/06/27 01:32:09;;;;;;;;;;;;;;;17.52;89.41;95450.28;5133779;28;1020;-48
2022/06/27 01:34:36;;;;;;;;;;;;;;;17.56;89.70;95449.69;5133953;28;1025;-48
2022/06/27 01:37:03;;;;;;;;;;;;;;;17.52;89.66;95448.41;5133886;28;1146;-48
2022/06/27 01:39:29;;;;;;;;;;;;;;;17.18;89.86;95450.00;5134690;27;993;-48
2022/06/27 01:41:56;;;;;;;;;;;;;;;16.96;91.39;95454.59;5140388;27;1188;-48
2022/06/27 01:44:23;;;;;;;;;;;;;;;17.04;91.17;95445.53;5158586;27;1971;-48
2022/06/27 01:46:49;;;;;;;;;;;;;;;17.33;90.44;95444.53;5158507;27;1095;-48
2022/06/27 01:49:16;;;;;;;;;;;;;;;17.42;90.07;95449.81;5158689;27;957;-48
2022/06/27 01:51:43;;;;;;;;;;;;;;;17.40;89.53;95454.56;5158428;27;1118;-48
2022/06/27 01:54:11;;;;;;;;;;;;;;;17.33;89.75;95458.03;5158501;27;1034;-48
2022/06/27 01:56:37;;;;;;;;;;;;;;;17.18;89.53;95460.81;5158346;27;968;-48
2022/06/27 01:59:04;;;;;;;;;;;;;;;17.26;89.78;95457.13;5158346;27;1048;-48
2022/06/27 02:01:30;;;;;;;;;;;;;;;17.40;90.48;95459.97;5158435;27;1027;-48
2022/06/27 02:03:57;;;;;;;;;;;;;;;17.30;90.11;95463.00;5158377;27;1909;-48
2022/06/27 02:06:23;;;;;;;;;;;;;;;17.20;89.17;95457.94;5157911;27;1027;-48
2022/06/27 02:08:52;;;;;;;;;;;;;;;17.16;89.33;95465.56;5158197;27;1027;-48
2022/06/27 02:11:19;;;;;;;;;;;;;;;17.01;89.61;95470.22;5158376;27;999;-48
2022/06/27 02:13:46;;;;;;;;;;;;;;;16.92;89.92;95474.06;5158259;27;1023;-48
2022/06/27 02:16:14;;;;;;;;;;;;;;;16.94;90.74;95475.56;5158174;27;1022;-48
2022/06/27 02:18:40;;;;;;;;;;;;;;;17.06;90.33;95472.38;5157915;27;1966;-48
2022/06/27 02:21:07;;;;;;;;;;;;;;;17.07;90.01;95480.25;5157799;27;1238;-48
2022/06/27 02:23:33;;;;;;;;;;;;;;;17.10;89.52;95490.69;5157672;27;1901;-48
2022/06/27 02:25:59;;;;;;;;;;;;;;;17.07;89.40;95471.31;5158173;27;1031;-48
2022/06/27 02:28:27;;;;;;;;;;;;;;;17.10;90.32;95468.25;5157906;27;1047;-48
2022/06/27 02:30:53;;;;;;;;;;;;;;;17.12;90.71;95469.72;5157820;27;1036;-48
2022/06/27 02:33:19;;;;;;;;;;;;;;;17.16;90.41;95478.25;5157641;27;1020;-48
2022/06/27 02:35:46;;;;;;;;;;;;;;;16.97;88.75;95475.16;5157563;27;1006;-48
2022/06/27 02:38:14;;;;;;;;;;;;;;;16.76;89.31;95472.44;5157381;27;968;-48
2022/06/27 02:40:42;;;;;;;;;;;;;;;16.73;90.13;95470.13;5157879;27;1031;-48
2022/06/27 02:43:08;;;;;;;;;;;;;;;17.00;89.16;95475.81;5144084;27;1918;-48
2022/06/27 02:45:38;;;;;;;;;;;;;;;17.12;88.97;95466.19;5136970;27;1032;-48
2022/06/27 02:48:05;;;;;;;;;;;;;;;16.95;89.99;95474.53;5136496;27;1032;-48
2022/06/27 02:50:32;;;;;;;;;;;;;;;16.68;90.74;95475.28;5136748;27;1003;-48
2022/06/27 02:53:00;;;;;;;;;;;;;;;16.61;90.75;95485.16;5136421;27;1040;-48
2022/06/27 02:55:27;;;;;;;;;;;;;;;16.77;90.37;95479.53;5136864;27;956;-47
2022/06/27 02:58:02;;;;;;;;;;;;;;;16.86;90.67;95475.69;5136588;27;996;-48
2022/06/27 03:00:29;;;;;;;;;;;;;;;16.92;90.48;95480.34;5136578;27;1008;-48
2022/06/27 03:02:55;;;;;;;;;;;;;;;16.94;89.65;95486.38;5136301;27;2000;-48
2022/06/27 03:05:21;;;;;;;;;;;;;;;16.74;89.19;95485.31;5136095;27;1086;-48
2022/06/27 03:07:47;;;;;;;;;;;;;;;16.78;89.76;95481.19;5136451;27;1036;-48
2022/06/27 03:10:13;;;;;;;;;;;;;;;16.72;89.32;95484.66;5136512;27;1036;-48
2022/06/27 03:12:40;;;;;;;;;;;;;;;16.77;90.35;95487.63;5136126;27;1059;-48
2022/06/27 03:15:07;;;;;;;;;;;;;;;16.83;89.87;95492.28;5136319;27;1023;-48
2022/06/27 03:17:33;;;;;;;;;;;;;;;16.96;88.85;95483.50;5136270;27;964;-48
2022/06/27 03:19:59;;;;;;;;;;;;;;;16.87;89.79;95485.47;5136054;27;973;-48
2022/06/27 03:22:25;;;;;;;;;;;;;;;16.85;89.26;95487.53;5135961;27;1238;-48
2022/06/27 03:24:51;;;;;;;;;;;;;;;16.90;89.33;95481.53;5136053;27;1991;-48
2022/06/27 03:27:17;;;;;;;;;;;;;;;16.93;88.86;95484.69;5135927;27;1100;-48
2022/06/27 03:29:43;;;;;;;;;;;;;;;16.90;89.34;95485.09;5135940;27;964;-48
2022/06/27 03:32:09;;;;;;;;;;;;;;;16.88;89.99;95487.13;5135834;27;1962;-48
2022/06/27 03:34:35;;;;;;;;;;;;;;;16.95;89.60;95484.50;5135486;27;1047;-48
2022/06/27 03:37:01;;;;;;;;;;;;;;;16.70;89.58;95486.72;5135668;27;1079;-48
2022/06/27 03:39:27;;;;;;;;;;;;;;;16.48;90.13;95499.31;5135830;27;973;-47
2022/06/27 03:41:53;;;;;;;;;;;;;;;16.38;90.85;95500.44;5138109;27;1168;-47
2022/06/27 03:44:19;;;;;;;;;;;;;;;16.46;91.12;95491.41;5156226;27;1988;-48
2022/06/27 03:46:45;;;;;;;;;;;;;;;16.65;92.01;95503.47;5156378;27;1028;-48
2022/06/27 03:51:56;;;;;;;;;;;;;;;17.11;89.24;95503.16;5156236;27;1094;-48
2022/06/27 03:54:22;;;;;;;;;;;;;;;17.39;88.59;95505.06;5156256;27;1083;-48
2022/06/27 03:56:48;;;;;;;;;;;;;;;17.54;88.83;95511.22;5156026;27;1031;-48
2022/06/27 03:59:14;;;;;;;;;;;;;;;17.71;88.34;95510.94;5155930;27;1003;-48
2022/06/27 04:01:40;;;;;;;;;;;;;;;17.88;87.93;95515.03;5156113;27;1200;-48
2022/06/27 04:04:06;;;;;;;;;;;;;;;17.98;88.27;95519.28;5154930;27;1909;-48
2022/06/27 04:06:33;;;;;;;;;;;;;;;17.88;87.47;95522.34;5156294;27;1062;-48
2022/06/27 04:08:59;;;;;;;;;;;;;;;17.97;88.17;95518.44;5156006;27;1014;-48
2022/06/27 04:11:25;;;;;;;;;;;;;;;18.31;87.06;95524.88;5155880;27;1036;-48
2022/06/27 04:13:51;;;;;;;;;;;;;;;18.59;86.38;95518.53;5155704;27;1055;-48
2022/06/27 04:16:17;;;;;;;;;;;;;;;18.69;86.94;95517.13;5155745;27;1023;-48
2022/06/27 04:18:43;;;;;;;;;;;;;;;18.87;86.54;95513.88;5155459;27;1025;-48
2022/06/27 04:21:09;;;;;;;;;;;;;;;19.02;85.68;95510.19;5155610;27;1193;-48
2022/06/27 04:23:35;;;;;;;;;;;;;;;19.07;84.82;95508.53;5137290;27;1985;-48
2022/06/27 04:26:01;;;;;;;;;;;;;;;19.17;86.29;95508.13;5155801;27;1024;-48
2022/06/27 04:28:27;;;;;;;;;;;;;;;19.14;86.45;95507.69;5155421;27;1087;-48
2022/06/27 04:30:53;;;;;;;;;;;;;;;19.15;86.52;95507.50;5155446;27;960;-48
2022/06/27 04:33:19;;;;;;;;;;;;;;;19.24;83.21;95511.69;5155291;27;956;-48
2022/06/27 04:35:46;;;;;;;;;;;;;;;19.43;83.18;95518.16;5155176;27;1035;-48
2022/06/27 04:38:13;;;;;;;;;;;;;;;19.49;83.23;95511.91;5155490;27;949;-48
2022/06/27 04:40:39;;;;;;;;;;;;;;;19.60;82.56;95523.19;5155341;27;1067;-48
2022/06/27 04:43:07;;;;;;;;;;;;;;;19.75;82.42;95523.84;5142580;27;1913;-48
2022/06/27 04:45:33;;;;;;;;;;;;;;;19.74;82.26;95524.06;5134393;27;960;-48
2022/06/27 04:48:00;;;;;;;;;;;;;;;19.70;82.29;95527.13;5134419;27;976;-48
2022/06/27 04:50:26;;;;;;;;;;;;;;;19.75;82.74;95531.13;5134578;27;976;-48
2022/06/27 04:52:52;;;;;;;;;;;;;;;19.94;81.52;95529.44;5134657;27;969;-48
2022/06/27 04:55:20;;;;;;;;;;;;;;;20.06;80.06;95536.75;5134307;27;1141;-48
2022/06/27 04:57:46;;;;;;;;;;;;;;;20.11;80.85;95532.56;5134420;27;1087;-48
2022/06/27 05:00:13;;;;;;;;;;;;;;;20.22;80.18;95532.78;5134172;27;972;-48
2022/06/27 05:02:40;;;;;;;;;;;;;;;20.35;80.47;95537.31;5134282;27;1027;-48
2022/06/27 05:05:07;;;;;;;;;;;;;;;20.57;78.84;95526.19;5134029;27;1905;-48
2022/06/27 05:07:33;;;;;;;;;;;;;;;20.63;79.07;95542.50;5134420;27;1007;-48
2022/06/27 05:09:59;;;;;;;;;;;;;;;20.61;78.11;95535.63;5134223;28;1013;-48
2022/06/27 05:12:25;;;;;;;;;;;;;;;20.66;79.55;95538.53;5134170;28;1044;-48
2022/06/27 05:14:52;;;;;;;;;;;;;;;20.83;77.08;95545.13;5134879;27;1147;-48
2022/06/27 05:17:18;;;;;;;;;;;;;;;21.08;77.11;95546.25;5138431;27;1035;-48
2022/06/27 05:19:44;;;;;;;;;;;;;;;21.04;77.95;95546.72;5138487;27;999;-48
2022/06/27 05:22:10;;;;;;;;;;;;;;;21.15;76.57;95550.63;5138241;27;1848;-48
2022/06/27 05:24:37;;;;;;;;;;;;;;;21.21;76.29;95546.22;5138250;27;1909;-48
2022/06/27 05:27:03;;;;;;;;;;;;;;;21.13;77.41;95547.28;5138390;27;1000;-48
2022/06/27 05:29:29;;;;;;;;;;;;;;;21.11;77.53;95551.28;5138190;27;1051;-48
2022/06/27 05:31:55;;;;;;;;;;;;;;;21.24;77.60;95546.59;5138182;27;1142;-48
2022/06/27 05:34:21;;;;;;;;;;;;;;;21.39;78.22;95550.91;5138088;27;1044;-48
2022/06/27 05:36:48;;;;;;;;;;;;;;;21.43;77.32;95550.22;5138046;27;1859;-48
2022/06/27 05:39:14;;;;;;;;;;;;;;;21.59;76.86;95554.34;5138050;27;1028;-48
2022/06/27 05:41:41;;;;;;;;;;;;;;;21.56;78.27;95557.50;5138272;27;1219;-48
2022/06/27 05:44:07;;;;;;;;;;;;;;;21.62;78.36;95547.63;5158632;27;1913;-48
2022/06/27 05:46:33;;;;;;;;;;;;;;;21.59;77.14;95550.81;5158539;27;1027;-48
2022/06/27 05:49:01;;;;;;;;;;;;;;;21.64;78.45;95549.09;5158672;27;1971;-48
2022/06/27 05:51:28;;;;;;;;;;;;;;;21.75;77.09;95552.16;5158451;27;1244;-48
2022/06/27 05:53:56;;;;;;;;;;;;;;;21.91;76.49;95554.34;5158751;27;1055;-48
2022/06/27 05:56:24;;;;;;;;;;;;;;;21.94;77.51;95550.31;5158384;27;988;-48
2022/06/27 05:58:50;;;;;;;;;;;;;;;22.15;77.76;95549.09;5158454;27;983;-47
2022/06/27 06:01:17;;;;;;;;;;;;;;;22.30;77.33;95552.31;5158656;27;952;-48
2022/06/27 06:03:45;;;;;;;;;;;;;;;22.32;76.65;95557.53;5158714;27;1909;-48
2022/06/27 06:06:11;;;;;;;;;;;;;;;22.52;76.22;95562.78;5157880;27;1040;-47
2022/06/27 06:08:37;;;;;;;;;;;;;;;22.56;75.65;95555.84;5158336;27;1007;-48
2022/06/27 06:11:03;;;;;;;;;;;;;;;22.80;74.72;95559.53;5158101;27;965;-48
2022/06/27 06:13:29;;;;;;;;;;;;;;;23.00;73.93;95557.38;5158269;27;957;-48
2022/06/27 06:15:57;;;;;;;;;;;;;;;23.08;75.38;95560.91;5158233;27;999;-48
2022/06/27 06:18:23;;;;;;;;;;;;;;;23.15;73.18;95558.94;5158191;27;969;-48
2022/06/27 06:20:50;;;;;;;;;;;;;;;23.28;72.59;95556.03;5157734;27;1083;-48
2022/06/27 06:23:16;;;;;;;;;;;;;;;23.42;71.83;95553.94;5158001;27;1975;-48
2022/06/27 06:25:42;;;;;;;;;;;;;;;23.52;72.38;95564.28;5157343;27;1016;-48
2022/06/27 06:28:09;;;;;;;;;;;;;;;23.49;70.88;95551.94;5157841;27;976;-48
2022/06/27 06:30:35;;;;;;;;;;;;;;;23.50;71.47;95561.78;5157723;27;1091;-49
2022/06/27 06:33:05;;;;;;;;;;;;;;;23.47;71.03;95548.63;5157888;27;960;-48
2022/06/27 06:35:33;;;;;;;;;;;;;;;23.66;69.67;95559.47;5157702;27;1031;-48
2022/06/27 06:37:59;;;;;;;;;;;;;;;23.67;73.33;95551.03;5157628;27;1114;-48
2022/06/27 06:40:26;;;;;;;;;;;;;;;23.80;72.44;95552.75;5157668;27;1067;-48
2022/06/27 06:42:52;;;;;;;;;;;;;;;23.83;70.38;95556.91;5146595;27;1160;-48
2022/06/27 06:45:19;;;;;;;;;;;;;;;24.04;70.01;95556.38;5136900;27;1989;-48
2022/06/27 06:47:46;;;;;;;;;;;;;;;24.20;68.38;95563.00;5136835;27;991;-48
2022/06/27 06:50:16;;;;;;;;;;;;;;;24.32;65.93;95550.22;5136670;27;1086;-48
2022/06/27 06:52:42;;;;;;;;;;;;;;;24.41;68.90;95549.84;5136543;27;1032;-48
2022/06/27 06:55:09;;;;;;;;;;;;;;;24.44;67.97;95552.94;5136665;27;1040;-48
2022/06/27 06:57:37;;;;;;;;;;;;;;;24.50;68.22;95549.22;5136355;27;1098;-48
2022/06/27 07:00:05;;;;;;;;;;;;;;;24.61;67.91;95550.34;5136520;27;1861;-48
2022/06/27 07:02:31;;;;;;;;;;;;;;;24.78;69.07;95549.59;5136330;27;1035;-48
2022/06/27 07:04:58;;;;;;;;;;;;;;;25.00;68.16;95558.78;5136353;27;2009;-48
2022/06/27 07:07:25;;;;;;;;;;;;;;;25.21;65.50;95553.75;5136271;27;1028;-48
2022/06/27 07:09:52;;;;;;;;;;;;;;;25.11;65.80;95551.63;5136387;27;958;-48
2022/06/27 07:12:18;;;;;;;;;;;;;;;25.19;63.32;95553.16;5136290;27;1037;-48
2022/06/27 07:14:45;;;;;;;;;;;;;;;25.34;65.03;95550.75;5136305;27;1025;-48
2022/06/27 07:17:11;;;;;;;;;;;;;;;25.44;64.66;95550.97;5135990;27;1031;-48
2022/06/27 07:19:38;;;;;;;;;;;;;;;25.47;64.76;95557.84;5136348;27;1023;-48
2022/06/27 07:22:06;;;;;;;;;;;;;;;25.51;61.13;95557.09;5135789;27;1242;-48
2022/06/27 07:24:32;;;;;;;;;;;;;;;25.50;60.89;95551.88;5135984;27;2005;-48
2022/06/27 07:26:59;;;;;;;;;;;;;;;25.49;61.44;95553.78;5135856;27;1051;-48
2022/06/27 07:29:29;;;;;;;;;;;;;;;25.63;59.59;95558.94;5136165;27;987;-48
2022/06/27 07:31:55;;;;;;;;;;;;;;;25.77;60.71;95560.31;5135929;27;1211;-48
2022/06/27 07:34:22;;;;;;;;;;;;;;;25.78;60.71;95555.66;5135641;27;1056;-48
2022/06/27 07:36:50;;;;;;;;;;;;;;;25.83;59.58;95558.50;5135601;27;1090;-48
2022/06/27 07:39:16;;;;;;;;;;;;;;;25.85;60.00;95559.88;5134979;27;924;-48
2022/06/27 07:41:44;;;;;;;;;;;;;;;25.92;57.73;95557.03;5136596;27;1219;-48
2022/06/27 07:44:10;;;;;;;;;;;;;;;26.14;59.93;95559.03;5156414;27;1905;-48
2022/06/27 07:46:38;;;;;;;;;;;;;;;26.34;59.68;95558.53;5156566;27;984;-48
2022/06/27 07:49:04;;;;;;;;;;;;;;;26.27;59.61;95562.28;5156117;27;1020;-48
2022/06/27 07:51:30;;;;;;;;;;;;;;;26.33;60.05;95562.34;5156273;27;1110;-48
2022/06/27 07:53:56;;;;;;;;;;;;;;;26.41;58.57;95565.50;5156019;27;985;-48
2022/06/27 07:56:23;;;;;;;;;;;;;;;26.49;56.76;95554.09;5156354;27;1028;-48
2022/06/27 07:58:49;;;;;;;;;;;;;;;26.48;57.80;95559.81;5156191;27;1028;-48
2022/06/27 08:01:15;;;;;;;;;;;;;;;26.48;56.83;95563.41;5156143;27;941;-49
2022/06/27 08:03:48;;;;;;;;;;;;;;;26.57;57.44;95557.50;5155771;27;1906;-48
2022/06/27 08:06:16;;;;;;;;;;;;;;;26.68;57.62;95557.41;5155705;27;1024;-50
2022/06/27 08:08:44;;;;;;;;;;;;;;;26.69;56.41;95555.50;5156020;27;969;-48
2022/06/27 08:11:14;;;;;;;;;;;;;;;26.70;57.76;95561.84;5156039;27;1027;-48
2022/06/27 08:13:41;;;;;;;;;;;;;;;26.79;57.10;95565.81;5155885;27;980;-48
2022/06/27 08:16:08;;;;;;;;;;;;;;;26.80;55.99;95557.28;5155855;27;968;-48
2022/06/27 08:18:35;;;;;;;;;;;;;;;26.84;56.60;95561.22;5155572;27;1045;-48
2022/06/27 08:21:01;;;;;;;;;;;;;;;26.88;55.59;95556.03;5155485;27;1091;-49
2022/06/27 08:23:27;;;;;;;;;;;;;;;27.00;57.17;95561.41;5155397;27;1917;-48
2022/06/27 08:25:54;;;;;;;;;;;;;;;27.08;58.15;95550.81;5155863;27;1025;-48
2022/06/27 08:28:23;;;;;;;;;;;;;;;27.19;56.86;95553.69;5155429;27;1056;-48
2022/06/27 08:30:50;;;;;;;;;;;;;;;27.17;55.75;95544.88;5155702;27;1023;-48
2022/06/27 08:33:18;;;;;;;;;;;;;;;27.26;52.94;95546.09;5155245;27;1013;-48
2022/06/27 08:35:47;;;;;;;;;;;;;;;27.41;53.60;95553.69;5155235;27;1036;-48
2022/06/27 08:38:17;;;;;;;;;;;;;;;27.45;55.05;95544.69;5155430;27;1047;-48
2022/06/27 08:40:43;;;;;;;;;;;;;;;27.46;54.85;95549.06;5155621;27;1052;-48
2022/06/27 08:43:12;;;;;;;;;;;;;;;27.41;54.76;95550.94;5141941;27;1984;-48
2022/06/27 08:45:38;;;;;;;;;;;;;;;27.28;55.71;95546.69;5134700;27;1019;-48
2022/06/27 08:48:07;;;;;;;;;;;;;;;27.21;56.18;95546.84;5134328;27;1063;-48
2022/06/27 08:50:34;;;;;;;;;;;;;;;27.37;54.59;95544.31;5134417;27;1036;-48
2022/06/27 08:53:01;;;;;;;;;;;;;;;27.43;54.61;95546.00;5134501;27;1032;-47
2022/06/27 08:55:27;;;;;;;;;;;;;;;27.43;54.84;95538.63;5134624;27;1023;-48
2022/06/27 08:57:53;;;;;;;;;;;;;;;27.38;54.97;95544.06;5134545;27;1004;-48
2022/06/27 09:00:22;;;;;;;;;;;;;;;27.46;54.04;95543.59;5134329;27;1023;-48
2022/06/27 09:02:48;;;;;;;;;;;;;;;27.39;54.29;95534.72;5134414;27;1032;-48
2022/06/27 09:05:22;;;;;;;;;;;;;;;27.43;52.47;95532.28;5134081;27;1993;-48
2022/06/27 09:07:50;;;;;;;;;;;;;;;27.51;54.78;95536.47;5134523;27;1007;-47
2022/06/27 09:10:26;;;;;;;;;;;;;;;27.52;56.15;95535.41;5134059;27;1003;-48
2022/06/27 09:12:56;;;;;;;;;;;;;;;27.58;53.91;95535.19;5134295;28;1032;-48
2022/06/27 09:15:25;;;;;;;;;;;;;;;27.68;55.46;95537.22;5133883;28;1242;-48
2022/06/27 09:18:03;;;;;;;;;;;;;;;27.57;49.86;95528.06;5134201;28;1044;-48
2022/06/27 09:20:46;;;;;;;;;;;;;;;27.54;53.55;95534.03;5133861;28;1116;-48
2022/06/27 09:23:41;;;;;;;;;;;;;;;27.16;55.88;95524.81;5133936;28;1988;-47
2022/06/27 09:26:19;;;;;;;;;;;;;;;26.97;54.40;95535.28;5131892;28;1368;-48
2022/06/27 09:28:47;;;;;;;;;;;;;;;27.24;55.28;95531.78;5133874;28;1040;-48
2022/06/27 09:31:23;;;;;;;;;;;;;;;27.19;53.28;95518.00;5134088;28;1047;-48
2022/06/27 09:33:58;;;;;;;;;;;;;;;27.35;55.04;95522.59;5134011;28;1072;-48
2022/06/27 09:36:26;;;;;;;;;;;;;;;27.29;53.23;95518.16;5133823;28;1058;-48
2022/06/27 09:38:52;;;;;;;;;;;;;;;27.46;51.90;95518.88;5134103;28;1031;-48
2022/06/27 09:41:20;;;;;;;;;;;;;;;27.63;52.74;95513.28;5134104;28;1039;-48
2022/06/27 09:43:48;;;;;;;;;;;;;;;27.68;52.93;95517.16;5151990;27;1893;-48
2022/06/27 09:46:15;;;;;;;;;;;;;;;27.51;51.81;95518.09;5154614;27;1055;-48
2022/06/27 09:48:43;;;;;;;;;;;;;;;27.46;54.40;95512.56;5154640;27;1023;-48
2022/06/27 09:51:12;;;;;;;;;;;;;;;27.61;53.55;95518.19;5154295;27;1094;-48
2022/06/27 09:53:39;;;;;;;;;;;;;;;27.76;52.68;95506.53;5154727;27;1048;-48
2022/06/27 09:56:08;;;;;;;;;;;;;;;27.90;51.56;95506.94;5154433;27;996;-48
2022/06/27 09:58:37;;;;;;;;;;;;;;;27.89;51.06;95509.94;5154500;27;1087;-48
2022/06/27 10:01:04;;;;;;;;;;;;;;;27.85;52.24;95504.97;5137027;27;1023;-48
2022/06/27 10:03:31;;;;;;;;;;;;;;;27.92;53.16;95506.69;5158357;27;1988;-48
2022/06/27 10:05:58;;;;;;;;;;;;;;;27.98;53.14;95502.88;5158311;27;960;-48
2022/06/27 10:08:24;;;;;;;;;;;;;;;28.05;51.59;95509.00;5158488;27;1059;-47
2022/06/27 10:11:02;;;;;;;;;;;;;;;28.17;52.18;95504.16;5158110;27;922;-47
2022/06/27 10:13:28;;;;;;;;;;;;;;;28.13;50.57;95492.00;5158307;27;1062;-47
2022/06/27 10:15:57;;;;;;;;;;;;;;;27.60;53.34;95493.72;5157931;27;1048;-47
2022/06/27 10:18:23;;;;;;;;;;;;;;;27.06;52.27;95494.53;5158057;27;1047;-48
2022/06/27 10:20:51;;;;;;;;;;;;;;;27.03;53.73;95495.88;5157955;27;1166;-47
2022/06/27 10:23:18;;;;;;;;;;;;;;;27.31;52.39;95491.25;5139684;27;1914;-47
2022/06/27 10:25:45;;;;;;;;;;;;;;;27.56;49.16;95487.94;5157913;27;965;-48
2022/06/27 10:28:14;;;;;;;;;;;;;;;27.66;49.37;95489.97;5157967;27;1047;-48
2022/06/27 10:30:43;;;;;;;;;;;;;;;27.75;51.35;95491.13;5157755;27;1047;-48
2022/06/27 10:33:29;;;;;;;;;;;;;;;27.85;52.08;95483.00;5157796;27;1094;-48
2022/06/27 10:35:59;;;;;;;;;;;;;;;27.89;50.68;95490.72;5139871;27;1901;-49
2022/06/27 10:38:30;;;;;;;;;;;;;;;27.94;50.64;95474.28;5157764;27;1008;-48
2022/06/27 10:40:57;;;;;;;;;;;;;;;27.91;49.87;95474.81;5157661;27;973;-49
2022/06/27 10:43:35;;;;;;;;;;;;;;;27.73;48.76;95471.34;5142292;27;1917;-50
2022/06/27 10:46:10;;;;;;;;;;;;;;;27.77;47.92;95466.16;5136843;27;973;-49
2022/06/27 10:48:36;;;;;;;;;;;;;;;27.92;50.49;95469.03;5136971;27;1083;-50
2022/06/27 10:51:22;;;;;;;;;;;;;;;27.96;50.11;95469.34;5136507;27;1091;-51
2022/06/27 10:53:49;;;;;;;;;;;;;;;28.05;52.53;95473.25;5136660;27;1047;-48
2022/06/27 10:56:35;;;;;;;;;;;;;;;27.86;49.17;95467.31;5136544;27;1060;-48
2022/06/27 10:59:03;;;;;;;;;;;;;;;27.82;50.59;95463.44;5136698;27;1021;-48
2022/06/27 11:01:30;;;;;;;;;;;;;;;27.51;48.54;95462.34;5136958;27;1163;-48
2022/06/27 11:03:56;;;;;;;;;;;;;;;27.62;50.90;95453.09;5136467;27;2003;-50
2022/06/27 11:06:22;;;;;;;;;;;;;;;27.87;51.81;95455.25;5135996;27;1042;-49
2022/06/27 11:08:49;;;;;;;;;;;;;;;28.09;50.48;95457.91;5136679;27;1011;-48
2022/06/27 11:11:33;;;;;;;;;;;;;;;28.00;49.89;95465.81;5136134;27;1036;-50
2022/06/27 11:14:00;;;;;;;;;;;;;;;27.82;50.83;95460.69;5135415;27;1083;-49
2022/06/27 11:16:27;;;;;;;;;;;;;;;27.64;50.96;95457.25;5136228;27;1050;-49
2022/06/27 11:18:54;;;;;;;;;;;;;;;27.45;53.50;95450.47;5136174;27;1028;-49
2022/06/27 11:21:22;;;;;;;;;;;;;;;27.26;52.61;95455.50;5135953;27;1084;-49
2022/06/27 11:23:53;;;;;;;;;;;;;;;27.40;51.21;95447.72;5136254;27;1986;-49
2022/06/27 11:26:20;;;;;;;;;;;;;;;27.49;50.58;95448.03;5135887;27;1095;-49
2022/06/27 11:34:15;;;;;;;;;;;;;;;27.37;51.56;95446.28;5135887;27;1024;-49
2022/06/27 11:36:41;;;;;;;;;;;;;;;27.16;50.93;95438.91;5135902;27;1043;-49
2022/06/27 11:39:07;;;;;;;;;;;;;;;27.25;51.13;95442.91;5135877;27;1028;-48
2022/06/27 11:41:37;;;;;;;;;;;;;;;27.54;51.12;95446.19;5135339;27;1222;-47
2022/06/27 11:44:04;;;;;;;;;;;;;;;27.76;49.77;95435.09;5135551;27;1913;-48
2022/06/27 11:46:30;;;;;;;;;;;;;;;27.86;50.18;95442.59;5135709;27;1035;-48
2022/06/27 11:49:00;;;;;;;;;;;;;;;27.89;50.00;95435.75;5135809;27;1029;-48
2022/06/27 11:51:29;;;;;;;;;;;;;;;28.06;51.09;95444.72;5135584;27;1000;-48
2022/06/27 11:53:57;;;;;;;;;;;;;;;28.16;50.63;95432.94;5117336;27;992;-48
2022/06/27 11:56:24;;;;;;;;;;;;;;;28.33;49.82;95430.84;5135209;27;1035;-48
2022/06/27 11:58:52;;;;;;;;;;;;;;;28.28;47.30;95429.97;5135716;27;969;-49
2022/06/27 12:01:19;;;;;;;;;;;;;;;28.34;48.78;95432.50;5135155;27;1024;-48
2022/06/27 12:04:24;;;;;;;;;;;;;;;28.50;47.53;95435.34;5135386;27;1905;-48
2022/06/27 12:06:53;;;;;;;;;;;;;;;28.38;46.60;95438.28;5051586;28;1395;-48
2022/06/27 12:09:20;;;;;;;;;;;;;;;28.34;49.46;95435.25;5051815;28;1039;-48
2022/06/27 12:11:50;;;;;;;;;;;;;;;28.35;48.78;95433.34;5093367;27;1127;-48
2022/06/27 12:14:16;;;;;;;;;;;;;;;28.24;49.02;95436.00;5135130;27;957;-48
2022/06/27 12:16:44;;;;;;;;;;;;;;;28.40;47.98;95430.59;5134809;27;1274;-48
2022/06/27 12:19:10;;;;;;;;;;;;;;;28.59;49.78;95420.84;5135029;27;972;-48
2022/06/27 12:21:36;;;;;;;;;;;;;;;28.78;45.52;95423.13;5134737;27;1107;-48
2022/06/27 12:24:02;;;;;;;;;;;;;;;28.76;45.75;95428.03;5134644;27;1992;-48
2022/06/27 12:26:28;;;;;;;;;;;;;;;28.71;47.88;95422.53;5134851;27;1845;-49
2022/06/27 12:28:54;;;;;;;;;;;;;;;28.44;46.57;95420.72;5134907;27;1050;-48
2022/06/27 12:31:21;;;;;;;;;;;;;;;28.22;47.60;95423.63;5134763;27;1186;-48
2022/06/27 12:33:47;;;;;;;;;;;;;;;28.34;46.19;95418.75;5134650;27;1114;-48
2022/06/27 12:36:14;;;;;;;;;;;;;;;28.27;48.32;95417.31;5134450;27;1871;-48
2022/06/27 12:38:41;;;;;;;;;;;;;;;28.30;46.53;95414.88;5134741;27;1083;-48
2022/06/27 12:41:14;;;;;;;;;;;;;;;28.06;49.25;95411.72;5134656;27;1753;-48
2022/06/27 12:43:41;;;;;;;;;;;;;;;28.12;48.62;95407.09;5151862;27;1910;-48
2022/06/27 12:46:07;;;;;;;;;;;;;;;28.31;49.10;95415.72;5155363;27;1039;-48
2022/06/27 12:48:33;;;;;;;;;;;;;;;28.41;47.37;95415.75;5155022;27;1030;-48
2022/06/27 12:51:00;;;;;;;;;;;;;;;28.40;48.10;95412.19;5155500;27;948;-48
2022/06/27 12:53:26;;;;;;;;;;;;;;;28.48;46.71;95416.34;5155275;27;1023;-48
2022/06/27 12:55:52;;;;;;;;;;;;;;;28.46;47.55;95418.53;5155288;27;1038;-48
2022/06/27 12:58:18;;;;;;;;;;;;;;;28.48;47.02;95410.84;5155030;27;1059;-49
2022/06/27 13:00:45;;;;;;;;;;;;;;;28.48;46.36;95415.53;5155120;27;1048;-48
2022/06/27 13:03:11;;;;;;;;;;;;;;;28.46;46.34;95410.28;5154920;27;968;-48
2022/06/27 13:05:37;;;;;;;;;;;;;;;28.26;47.46;95411.00;5154763;27;1972;-48
2022/06/27 13:08:04;;;;;;;;;;;;;;;28.10;47.49;95414.78;5154995;27;1029;-48